ASA1411 KSEA-KLAX
Flight info
| Callsign | ASA1411 |
|---|---|
| Flight time | 2h 2m |
| Altitude | 35000 |
| Route | SUMMA2 SUMMA JINMO Q7 JAGWA BURGL IRNMN2 |
| Aircraft | B738/M-SDGIRW/LB1 |
Departure
| Time | 2026-05-06 22:18 |
|---|---|
| Airport | Seattle–Tacoma International Airport (KSEA) |
Arrival
| Time | 2026-05-07 00:21 |
|---|---|
| Airport | Los Angeles International Airport (KLAX) |
| Time | Latitude | Longitude | Altitude | Speed | Heading |
|---|---|---|---|---|---|
| 2026-05-06 22:02 | 47.44789 | -122.30272 | 408 ft | 0 kts | 40° |
| 2026-05-06 22:11 | 47.44774 | -122.30290 | 408 ft | 4 kts | 38° |
| 2026-05-06 22:11 | 47.44752 | -122.30310 | 406 ft | 4 kts | 15° |
| 2026-05-06 22:12 | 47.44727 | -122.30311 | 403 ft | 4 kts | 329° |
| 2026-05-06 22:12 | 47.44719 | -122.30303 | 403 ft | 2 kts | 310° |
| 2026-05-06 22:14 | 47.44726 | -122.30314 | 405 ft | 5 kts | 310° |
| 2026-05-06 22:14 | 47.44749 | -122.30355 | 406 ft | 6 kts | 310° |
| 2026-05-06 22:14 | 47.44791 | -122.30426 | 407 ft | 10 kts | 310° |
| 2026-05-06 22:14 | 47.44809 | -122.30518 | 406 ft | 10 kts | 281° |
| 2026-05-06 22:15 | 47.44831 | -122.30611 | 405 ft | 10 kts | 313° |
| 2026-05-06 22:15 | 47.44934 | -122.30627 | 408 ft | 18 kts | 1° |
| 2026-05-06 22:15 | 47.45059 | -122.30628 | 413 ft | 18 kts | 359° |
| 2026-05-06 22:15 | 47.45182 | -122.30625 | 411 ft | 20 kts | 0° |
| 2026-05-06 22:16 | 47.45345 | -122.30624 | 422 ft | 23 kts | 0° |
| 2026-05-06 22:16 | 47.45503 | -122.30622 | 424 ft | 22 kts | 0° |
| 2026-05-06 22:16 | 47.45674 | -122.30621 | 427 ft | 27 kts | 0° |
| 2026-05-06 22:16 | 47.45854 | -122.30619 | 430 ft | 25 kts | 0° |
| 2026-05-06 22:17 | 47.46024 | -122.30618 | 431 ft | 23 kts | 0° |
| 2026-05-06 22:17 | 47.46197 | -122.30617 | 433 ft | 27 kts | 0° |
| 2026-05-06 22:17 | 47.46349 | -122.30624 | 429 ft | 9 kts | 339° |
| 2026-05-06 22:17 | 47.46376 | -122.30700 | 442 ft | 12 kts | 264° |
| 2026-05-06 22:18 | 47.46294 | -122.30779 | 437 ft | 17 kts | 179° |
| 2026-05-06 22:18 | 47.45953 | -122.30781 | 429 ft | 90 kts | 180° |
| 2026-05-06 22:18 | 47.45070 | -122.30784 | 467 ft | 157 kts | 182° |
| 2026-05-06 22:18 | 47.43897 | -122.30806 | 1133 ft | 176 kts | 182° |
| 2026-05-06 22:19 | 47.42648 | -122.30840 | 2114 ft | 182 kts | 183° |
| 2026-05-06 22:19 | 47.41293 | -122.30844 | 2637 ft | 210 kts | 182° |
| 2026-05-06 22:19 | 47.39770 | -122.30831 | 3156 ft | 227 kts | 182° |
| 2026-05-06 22:19 | 47.38182 | -122.30823 | 3991 ft | 230 kts | 182° |
| 2026-05-06 22:20 | 47.36520 | -122.30826 | 4572 ft | 250 kts | 182° |
| 2026-05-06 22:20 | 47.34726 | -122.30839 | 5354 ft | 263 kts | 183° |
| 2026-05-06 22:20 | 47.32873 | -122.30857 | 6326 ft | 270 kts | 183° |
| 2026-05-06 22:20 | 47.30958 | -122.30882 | 7190 ft | 280 kts | 184° |
| 2026-05-06 22:21 | 47.28995 | -122.30911 | 8152 ft | 283 kts | 185° |
| 2026-05-06 22:21 | 47.27014 | -122.30941 | 9150 ft | 287 kts | 185° |
| 2026-05-06 22:21 | 47.24998 | -122.30967 | 10114 ft | 293 kts | 183° |
| 2026-05-06 22:21 | 47.22904 | -122.30496 | 10637 ft | 320 kts | 169° |
| 2026-05-06 22:22 | 47.20673 | -122.29476 | 10854 ft | 350 kts | 164° |
| 2026-05-06 22:22 | 47.18321 | -122.28219 | 11370 ft | 366 kts | 163° |
| 2026-05-06 22:22 | 47.15914 | -122.26889 | 12165 ft | 372 kts | 163° |
| 2026-05-06 22:22 | 47.13477 | -122.25550 | 13025 ft | 376 kts | 163° |
| 2026-05-06 22:23 | 47.11038 | -122.24231 | 13849 ft | 381 kts | 164° |
| 2026-05-06 22:23 | 47.08502 | -122.22881 | 14558 ft | 385 kts | 164° |
| 2026-05-06 22:23 | 47.05992 | -122.21562 | 14900 ft | 390 kts | 165° |
| 2026-05-06 22:23 | 47.03401 | -122.20209 | 14992 ft | 391 kts | 165° |
| 2026-05-06 22:24 | 47.00868 | -122.18892 | 15002 ft | 391 kts | 165° |
| 2026-05-06 22:24 | 46.98303 | -122.17561 | 14998 ft | 391 kts | 165° |
| 2026-05-06 22:24 | 46.95714 | -122.16224 | 15308 ft | 399 kts | 165° |
| 2026-05-06 22:24 | 46.93099 | -122.14873 | 16149 ft | 398 kts | 165° |
| 2026-05-06 22:25 | 46.90486 | -122.13523 | 17028 ft | 399 kts | 165° |
| 2026-05-06 22:25 | 46.88796 | -122.12652 | 17501 ft | 402 kts | 165° |
| 2026-05-06 22:25 | 46.86141 | -122.11285 | 18183 ft | 407 kts | 165° |
| 2026-05-06 22:25 | 46.83454 | -122.09904 | 18847 ft | 411 kts | 165° |
| 2026-05-06 22:26 | 46.80738 | -122.08507 | 19451 ft | 417 kts | 165° |
| 2026-05-06 22:26 | 46.77982 | -122.07092 | 20023 ft | 422 kts | 165° |
| 2026-05-06 22:26 | 46.75193 | -122.05659 | 20613 ft | 427 kts | 165° |
| 2026-05-06 22:26 | 46.72374 | -122.04212 | 21186 ft | 432 kts | 165° |
| 2026-05-06 22:27 | 46.69525 | -122.02751 | 21764 ft | 436 kts | 165° |
| 2026-05-06 22:27 | 46.66646 | -122.01279 | 22304 ft | 441 kts | 165° |
| 2026-05-06 22:27 | 46.63718 | -121.99958 | 22855 ft | 439 kts | 174° |
| 2026-05-06 22:27 | 46.60701 | -121.99802 | 23436 ft | 432 kts | 191° |
| 2026-05-06 22:28 | 46.57812 | -122.00820 | 23953 ft | 426 kts | 206° |
| 2026-05-06 22:28 | 46.55045 | -122.02383 | 24403 ft | 428 kts | 207° |
| 2026-05-06 22:28 | 46.52272 | -122.04007 | 24827 ft | 432 kts | 207° |
| 2026-05-06 22:28 | 46.49467 | -122.05633 | 25246 ft | 436 kts | 207° |
| 2026-05-06 22:29 | 46.46629 | -122.07237 | 25682 ft | 440 kts | 206° |
| 2026-05-06 22:29 | 46.43758 | -122.08832 | 26098 ft | 444 kts | 206° |
| 2026-05-06 22:29 | 46.40854 | -122.10409 | 26519 ft | 449 kts | 204° |
| 2026-05-06 22:29 | 46.37787 | -122.11489 | 26914 ft | 460 kts | 193° |
| 2026-05-06 22:30 | 46.34607 | -122.11802 | 27310 ft | 469 kts | 184° |
| 2026-05-06 22:30 | 46.31327 | -122.11352 | 27724 ft | 477 kts | 175° |
| 2026-05-06 22:30 | 46.28040 | -122.10555 | 28061 ft | 481 kts | 174° |
| 2026-05-06 22:30 | 46.24731 | -122.09699 | 28410 ft | 485 kts | 173° |
| 2026-05-06 22:31 | 46.21392 | -122.08831 | 28734 ft | 488 kts | 174° |
| 2026-05-06 22:31 | 46.18042 | -122.07975 | 29134 ft | 490 kts | 174° |
| 2026-05-06 22:31 | 46.14677 | -122.07136 | 29498 ft | 492 kts | 174° |
| 2026-05-06 22:31 | 46.11293 | -122.06313 | 29831 ft | 495 kts | 174° |
| 2026-05-06 22:32 | 46.07879 | -122.05494 | 30125 ft | 499 kts | 174° |
| 2026-05-06 22:32 | 46.04443 | -122.04677 | 30405 ft | 501 kts | 174° |
| 2026-05-06 22:32 | 46.00997 | -122.03860 | 30750 ft | 503 kts | 174° |
| 2026-05-06 22:32 | 45.97550 | -122.03043 | 31174 ft | 501 kts | 174° |
| 2026-05-06 22:33 | 45.94121 | -122.02230 | 31652 ft | 498 kts | 174° |
| 2026-05-06 22:33 | 45.90748 | -122.01430 | 32021 ft | 498 kts | 174° |
| 2026-05-06 22:33 | 45.87331 | -122.00622 | 32405 ft | 497 kts | 174° |
| 2026-05-06 22:33 | 45.83872 | -121.99805 | 32819 ft | 497 kts | 174° |
| 2026-05-06 22:34 | 45.80507 | -121.99011 | 33217 ft | 496 kts | 174° |
| 2026-05-06 22:34 | 45.77101 | -121.98208 | 33569 ft | 496 kts | 174° |
| 2026-05-06 22:34 | 45.73695 | -121.97406 | 33908 ft | 496 kts | 174° |
| 2026-05-06 22:34 | 45.70295 | -121.96607 | 34296 ft | 495 kts | 174° |
| 2026-05-06 22:35 | 45.66895 | -121.95809 | 34631 ft | 494 kts | 174° |
| 2026-05-06 22:35 | 45.63509 | -121.95015 | 34925 ft | 494 kts | 174° |
| 2026-05-06 22:35 | 45.60102 | -121.94218 | 35191 ft | 496 kts | 174° |
| 2026-05-06 22:35 | 45.56678 | -121.93419 | 35165 ft | 501 kts | 174° |
| 2026-05-06 22:36 | 45.49820 | -121.91816 | 35150 ft | 494 kts | 174° |
| 2026-05-06 22:36 | 45.43033 | -121.90232 | 35163 ft | 495 kts | 174° |
| 2026-05-06 22:37 | 45.36228 | -121.88651 | 35164 ft | 496 kts | 174° |
| 2026-05-06 22:37 | 45.29400 | -121.87069 | 35149 ft | 497 kts | 174° |
| 2026-05-06 22:38 | 45.22572 | -121.85490 | 35157 ft | 497 kts | 174° |
| 2026-05-06 22:38 | 45.15738 | -121.83913 | 35155 ft | 497 kts | 174° |
| 2026-05-06 22:39 | 45.08959 | -121.82353 | 35149 ft | 496 kts | 174° |
| 2026-05-06 22:39 | 45.02148 | -121.80789 | 35155 ft | 496 kts | 174° |
| 2026-05-06 22:40 | 44.95338 | -121.79230 | 35131 ft | 495 kts | 174° |
| 2026-05-06 22:40 | 44.88529 | -121.77674 | 35131 ft | 495 kts | 174° |
| 2026-05-06 22:41 | 44.78327 | -121.75350 | 35119 ft | 494 kts | 173° |
| 2026-05-06 22:42 | 44.71582 | -121.73818 | 35112 ft | 494 kts | 173° |
| 2026-05-06 22:42 | 44.64790 | -121.72279 | 35108 ft | 493 kts | 173° |
| 2026-05-06 22:43 | 44.58009 | -121.70746 | 35094 ft | 493 kts | 173° |
| 2026-05-06 22:43 | 44.51238 | -121.69219 | 35098 ft | 492 kts | 173° |
| 2026-05-06 22:44 | 44.44462 | -121.67695 | 35084 ft | 492 kts | 173° |
| 2026-05-06 22:44 | 44.37735 | -121.66184 | 35113 ft | 493 kts | 173° |
| 2026-05-06 22:45 | 44.30956 | -121.64661 | 35094 ft | 493 kts | 173° |
| 2026-05-06 22:45 | 44.24183 | -121.63093 | 35103 ft | 493 kts | 173° |
| 2026-05-06 22:46 | 44.17406 | -121.61511 | 35112 ft | 494 kts | 173° |
| 2026-05-06 22:46 | 44.11771 | -121.60202 | 35089 ft | 494 kts | 173° |
| 2026-05-06 22:47 | 44.03886 | -121.58380 | 35100 ft | 493 kts | 172° |
| 2026-05-06 22:47 | 43.97113 | -121.56821 | 35097 ft | 493 kts | 172° |
| 2026-05-06 22:48 | 43.91472 | -121.55525 | 35094 ft | 493 kts | 172° |
| 2026-05-06 22:48 | 43.84688 | -121.53970 | 35101 ft | 493 kts | 173° |
| 2026-05-06 22:49 | 43.77910 | -121.52419 | 35084 ft | 494 kts | 173° |
| 2026-05-06 22:49 | 43.71136 | -121.50873 | 35077 ft | 494 kts | 173° |
| 2026-05-06 22:50 | 43.64357 | -121.49329 | 35084 ft | 493 kts | 172° |
| 2026-05-06 22:50 | 43.57592 | -121.47792 | 35085 ft | 493 kts | 172° |
| 2026-05-06 22:51 | 43.50823 | -121.46258 | 35089 ft | 493 kts | 172° |
| 2026-05-06 22:51 | 43.44087 | -121.44735 | 35085 ft | 493 kts | 172° |
| 2026-05-06 22:52 | 43.37308 | -121.43205 | 35082 ft | 494 kts | 172° |
| 2026-05-06 22:52 | 43.30527 | -121.41678 | 35074 ft | 494 kts | 172° |
| 2026-05-06 22:53 | 43.23744 | -121.40154 | 35071 ft | 493 kts | 172° |
| 2026-05-06 22:53 | 43.17016 | -121.38646 | 35078 ft | 493 kts | 172° |
| 2026-05-06 22:54 | 43.10243 | -121.37131 | 35075 ft | 493 kts | 172° |
| 2026-05-06 22:54 | 43.03472 | -121.35620 | 35086 ft | 493 kts | 172° |
| 2026-05-06 22:55 | 42.96702 | -121.34112 | 35078 ft | 492 kts | 172° |
| 2026-05-06 22:55 | 42.89934 | -121.32608 | 35075 ft | 492 kts | 172° |
| 2026-05-06 22:56 | 42.83181 | -121.31113 | 35077 ft | 491 kts | 172° |
| 2026-05-06 22:56 | 42.76441 | -121.29625 | 35084 ft | 490 kts | 172° |
| 2026-05-06 22:57 | 42.69712 | -121.28142 | 35085 ft | 490 kts | 172° |
| 2026-05-06 22:57 | 42.63025 | -121.26671 | 35091 ft | 489 kts | 172° |
| 2026-05-06 22:58 | 42.56292 | -121.25193 | 35084 ft | 489 kts | 172° |
| 2026-05-06 22:58 | 42.49570 | -121.23721 | 35080 ft | 489 kts | 172° |
| 2026-05-06 22:59 | 42.42846 | -121.22251 | 35084 ft | 488 kts | 172° |
| 2026-05-06 22:59 | 42.36140 | -121.20788 | 35082 ft | 487 kts | 172° |
| 2026-05-06 23:00 | 42.29481 | -121.19339 | 35079 ft | 487 kts | 172° |
| 2026-05-06 23:00 | 42.22782 | -121.17885 | 35088 ft | 487 kts | 172° |
| 2026-05-06 23:01 | 42.16084 | -121.16434 | 35083 ft | 487 kts | 172° |
| 2026-05-06 23:01 | 42.09394 | -121.14987 | 35083 ft | 486 kts | 173° |
| 2026-05-06 23:02 | 42.02750 | -121.13553 | 35071 ft | 486 kts | 173° |
| 2026-05-06 23:02 | 41.96074 | -121.12116 | 35073 ft | 486 kts | 173° |
| 2026-05-06 23:03 | 41.89395 | -121.10681 | 35072 ft | 485 kts | 173° |
| 2026-05-06 23:03 | 41.82728 | -121.09251 | 35069 ft | 484 kts | 173° |
| 2026-05-06 23:04 | 41.76101 | -121.07834 | 35069 ft | 484 kts | 173° |
| 2026-05-06 23:04 | 41.69449 | -121.06413 | 35070 ft | 484 kts | 173° |
| 2026-05-06 23:05 | 41.62790 | -121.04994 | 35060 ft | 484 kts | 173° |
| 2026-05-06 23:05 | 41.56146 | -121.03582 | 35074 ft | 483 kts | 173° |
| 2026-05-06 23:06 | 41.49501 | -121.02172 | 35075 ft | 483 kts | 173° |
| 2026-05-06 23:06 | 41.42882 | -121.00770 | 35079 ft | 483 kts | 173° |
| 2026-05-06 23:07 | 41.36238 | -120.99367 | 35067 ft | 483 kts | 173° |
| 2026-05-06 23:07 | 41.29590 | -120.97965 | 35072 ft | 484 kts | 173° |
| 2026-05-06 23:08 | 41.22942 | -120.96566 | 35057 ft | 483 kts | 173° |
| 2026-05-06 23:08 | 41.16299 | -120.95170 | 35078 ft | 483 kts | 173° |
| 2026-05-06 23:09 | 41.09656 | -120.93778 | 35081 ft | 484 kts | 173° |
| 2026-05-06 23:09 | 41.03004 | -120.92386 | 35089 ft | 484 kts | 173° |
| 2026-05-06 23:10 | 40.96323 | -120.91287 | 35097 ft | 483 kts | 178° |
| 2026-05-06 23:10 | 40.89617 | -120.90791 | 35103 ft | 482 kts | 180° |
| 2026-05-06 23:11 | 40.82947 | -120.90368 | 35105 ft | 483 kts | 179° |
| 2026-05-06 23:11 | 40.76226 | -120.89883 | 35095 ft | 484 kts | 179° |
| 2026-05-06 23:12 | 40.69501 | -120.89354 | 35098 ft | 484 kts | 179° |
| 2026-05-06 23:12 | 40.62775 | -120.88814 | 35086 ft | 484 kts | 179° |
| 2026-05-06 23:13 | 40.56046 | -120.88276 | 35106 ft | 484 kts | 179° |
| 2026-05-06 23:13 | 40.49317 | -120.87741 | 35115 ft | 484 kts | 179° |
| 2026-05-06 23:14 | 40.42587 | -120.87209 | 35117 ft | 484 kts | 179° |
| 2026-05-06 23:14 | 40.35904 | -120.86681 | 35128 ft | 484 kts | 179° |
| 2026-05-06 23:15 | 40.29172 | -120.86151 | 35111 ft | 485 kts | 179° |
| 2026-05-06 23:15 | 40.22430 | -120.85622 | 35102 ft | 485 kts | 178° |
| 2026-05-06 23:16 | 40.15686 | -120.85092 | 35094 ft | 485 kts | 178° |
| 2026-05-06 23:16 | 40.08944 | -120.84564 | 35074 ft | 485 kts | 178° |
| 2026-05-06 23:17 | 40.02189 | -120.84036 | 35085 ft | 485 kts | 178° |
| 2026-05-06 23:17 | 39.95484 | -120.83513 | 35083 ft | 486 kts | 178° |
| 2026-05-06 23:18 | 39.88727 | -120.82987 | 35089 ft | 486 kts | 178° |
| 2026-05-06 23:18 | 39.81980 | -120.82463 | 35088 ft | 486 kts | 178° |
| 2026-05-06 23:19 | 39.75230 | -120.81939 | 35103 ft | 486 kts | 178° |
| 2026-05-06 23:19 | 39.68513 | -120.81419 | 35100 ft | 486 kts | 178° |
| 2026-05-06 23:20 | 39.61757 | -120.80897 | 35118 ft | 486 kts | 178° |
| 2026-05-06 23:20 | 39.54992 | -120.80376 | 35123 ft | 486 kts | 178° |
| 2026-05-06 23:21 | 39.48231 | -120.79856 | 35121 ft | 486 kts | 178° |
| 2026-05-06 23:21 | 39.41462 | -120.79336 | 35129 ft | 486 kts | 178° |
| 2026-05-06 23:22 | 39.34745 | -120.78821 | 35242 ft | 486 kts | 178° |
| 2026-05-06 23:22 | 39.27943 | -120.78301 | 35237 ft | 487 kts | 177° |
| 2026-05-06 23:23 | 39.21217 | -120.77787 | 35255 ft | 487 kts | 178° |
| 2026-05-06 23:23 | 39.14449 | -120.77272 | 35226 ft | 487 kts | 178° |
| 2026-05-06 23:24 | 39.07670 | -120.76756 | 35195 ft | 487 kts | 177° |
| 2026-05-06 23:24 | 39.00896 | -120.76241 | 35168 ft | 487 kts | 177° |
| 2026-05-06 23:25 | 38.94127 | -120.75729 | 35154 ft | 487 kts | 177° |
| 2026-05-06 23:25 | 38.87356 | -120.75217 | 35161 ft | 488 kts | 177° |
| 2026-05-06 23:26 | 38.80574 | -120.74705 | 35178 ft | 488 kts | 177° |
| 2026-05-06 23:26 | 38.73799 | -120.74194 | 35180 ft | 488 kts | 177° |
| 2026-05-06 23:27 | 38.67013 | -120.73684 | 35138 ft | 488 kts | 177° |
| 2026-05-06 23:27 | 38.60232 | -120.73175 | 35151 ft | 488 kts | 177° |
| 2026-05-06 23:28 | 38.53493 | -120.72671 | 35137 ft | 489 kts | 177° |
| 2026-05-06 23:28 | 38.46702 | -120.72163 | 35141 ft | 489 kts | 177° |
| 2026-05-06 23:29 | 38.39906 | -120.71656 | 35138 ft | 488 kts | 177° |
| 2026-05-06 23:29 | 38.33122 | -120.71150 | 35134 ft | 488 kts | 177° |
| 2026-05-06 23:30 | 38.26331 | -120.70646 | 35138 ft | 489 kts | 177° |
| 2026-05-06 23:30 | 38.19533 | -120.70141 | 35145 ft | 489 kts | 177° |
| 2026-05-06 23:31 | 38.12777 | -120.69641 | 35124 ft | 489 kts | 176° |
| 2026-05-06 23:31 | 38.05979 | -120.69138 | 35122 ft | 489 kts | 176° |
| 2026-05-06 23:32 | 37.99184 | -120.68636 | 35137 ft | 489 kts | 176° |
| 2026-05-06 23:32 | 37.92389 | -120.68136 | 35134 ft | 489 kts | 176° |
| 2026-05-06 23:33 | 37.85584 | -120.67636 | 35112 ft | 489 kts | 176° |
| 2026-05-06 23:33 | 37.78789 | -120.67137 | 35124 ft | 489 kts | 176° |
| 2026-05-06 23:34 | 37.73139 | -120.66723 | 35107 ft | 489 kts | 176° |
| 2026-05-06 23:34 | 37.65224 | -120.66144 | 35105 ft | 489 kts | 176° |
| 2026-05-06 23:35 | 37.59529 | -120.65729 | 35115 ft | 489 kts | 176° |
| 2026-05-06 23:35 | 37.52722 | -120.65233 | 35108 ft | 489 kts | 176° |
| 2026-05-06 23:36 | 37.45927 | -120.64738 | 35114 ft | 489 kts | 176° |
| 2026-05-06 23:36 | 37.39162 | -120.64247 | 35109 ft | 489 kts | 176° |
| 2026-05-06 23:37 | 37.32360 | -120.63625 | 35099 ft | 489 kts | 170° |
| 2026-05-06 23:37 | 37.25768 | -120.61618 | 35101 ft | 487 kts | 163° |
| 2026-05-06 23:38 | 37.19224 | -120.59389 | 35105 ft | 487 kts | 163° |
| 2026-05-06 23:38 | 37.12671 | -120.57205 | 35103 ft | 487 kts | 164° |
| 2026-05-06 23:39 | 37.06103 | -120.55068 | 35113 ft | 487 kts | 164° |
| 2026-05-06 23:39 | 36.99540 | -120.52951 | 35109 ft | 487 kts | 164° |
| 2026-05-06 23:40 | 36.93021 | -120.50853 | 35117 ft | 487 kts | 164° |
| 2026-05-06 23:40 | 36.86456 | -120.48741 | 35112 ft | 487 kts | 164° |
| 2026-05-06 23:41 | 36.79899 | -120.46634 | 35116 ft | 487 kts | 164° |
| 2026-05-06 23:41 | 36.73339 | -120.44530 | 35126 ft | 486 kts | 164° |
| 2026-05-06 23:42 | 36.66785 | -120.42432 | 35121 ft | 486 kts | 164° |
| 2026-05-06 23:42 | 36.60227 | -120.40335 | 35123 ft | 486 kts | 164° |
| 2026-05-06 23:43 | 36.53666 | -120.38242 | 35119 ft | 486 kts | 164° |
| 2026-05-06 23:43 | 36.47151 | -120.36167 | 35119 ft | 486 kts | 164° |
| 2026-05-06 23:44 | 36.40589 | -120.34080 | 35123 ft | 487 kts | 164° |
| 2026-05-06 23:44 | 36.34022 | -120.31996 | 35125 ft | 487 kts | 163° |
| 2026-05-06 23:45 | 36.27461 | -120.29917 | 35126 ft | 487 kts | 163° |
| 2026-05-06 23:45 | 36.20888 | -120.27838 | 35114 ft | 487 kts | 163° |
| 2026-05-06 23:46 | 36.14315 | -120.25763 | 35117 ft | 487 kts | 163° |
| 2026-05-06 23:46 | 36.07754 | -120.23695 | 35115 ft | 486 kts | 163° |
| 2026-05-06 23:47 | 36.01233 | -120.21642 | 35121 ft | 486 kts | 163° |
| 2026-05-06 23:47 | 35.94676 | -120.19583 | 35116 ft | 486 kts | 163° |
| 2026-05-06 23:48 | 35.88111 | -120.17524 | 35102 ft | 485 kts | 163° |
| 2026-05-06 23:48 | 35.84879 | -120.16513 | 35097 ft | 472 kts | 163° |
| 2026-05-06 23:48 | 35.81732 | -120.15530 | 35097 ft | 463 kts | 163° |
| 2026-05-06 23:49 | 35.75468 | -120.13835 | 35099 ft | 464 kts | 175° |
| 2026-05-06 23:49 | 35.69009 | -120.14447 | 35109 ft | 466 kts | 186° |
| 2026-05-06 23:50 | 35.62618 | -120.15555 | 35110 ft | 467 kts | 187° |
| 2026-05-06 23:50 | 35.52954 | -120.17296 | 35113 ft | 468 kts | 187° |
| 2026-05-06 23:51 | 35.46512 | -120.18472 | 35106 ft | 468 kts | 187° |
| 2026-05-06 23:51 | 35.40125 | -120.18236 | 35112 ft | 458 kts | 155° |
| 2026-05-06 23:52 | 35.37426 | -120.16276 | 35107 ft | 448 kts | 134° |
| 2026-05-06 23:52 | 35.35424 | -120.13411 | 35125 ft | 440 kts | 120° |
| 2026-05-06 23:52 | 35.33938 | -120.10164 | 35119 ft | 435 kts | 109° |
| 2026-05-06 23:52 | 35.33041 | -120.06654 | 35111 ft | 429 kts | 98° |
| 2026-05-06 23:53 | 35.31866 | -119.99531 | 35099 ft | 429 kts | 97° |
| 2026-05-06 23:53 | 35.30660 | -119.92361 | 35093 ft | 430 kts | 98° |
| 2026-05-06 23:54 | 35.29313 | -119.85212 | 35087 ft | 434 kts | 106° |
| 2026-05-06 23:54 | 35.27863 | -119.81945 | 35117 ft | 442 kts | 123° |
| 2026-05-06 23:54 | 35.25706 | -119.79234 | 35106 ft | 449 kts | 137° |
| 2026-05-06 23:55 | 35.20703 | -119.74601 | 34956 ft | 454 kts | 140° |
| 2026-05-06 23:55 | 35.18152 | -119.72297 | 34412 ft | 455 kts | 140° |
| 2026-05-06 23:55 | 35.15629 | -119.70002 | 33793 ft | 453 kts | 139° |
| 2026-05-06 23:56 | 35.13097 | -119.67675 | 33122 ft | 453 kts | 139° |
| 2026-05-06 23:56 | 35.10587 | -119.65350 | 32394 ft | 453 kts | 139° |
| 2026-05-06 23:56 | 35.08095 | -119.63031 | 31425 ft | 450 kts | 139° |
| 2026-05-06 23:56 | 35.05602 | -119.60708 | 30302 ft | 452 kts | 139° |
| 2026-05-06 23:57 | 35.03129 | -119.58405 | 29195 ft | 451 kts | 139° |
| 2026-05-06 23:57 | 35.00664 | -119.56115 | 28418 ft | 441 kts | 139° |
| 2026-05-06 23:57 | 34.98247 | -119.53872 | 27641 ft | 432 kts | 139° |
| 2026-05-06 23:57 | 34.95885 | -119.51680 | 27074 ft | 420 kts | 139° |
| 2026-05-06 23:58 | 34.93589 | -119.49553 | 26537 ft | 410 kts | 139° |
| 2026-05-06 23:58 | 34.91315 | -119.47445 | 26044 ft | 414 kts | 139° |
| 2026-05-06 23:58 | 34.88968 | -119.45307 | 25652 ft | 429 kts | 140° |
| 2026-05-06 23:58 | 34.86521 | -119.43116 | 25216 ft | 440 kts | 140° |
| 2026-05-06 23:59 | 34.84086 | -119.40955 | 24746 ft | 424 kts | 140° |
| 2026-05-06 23:59 | 34.81747 | -119.38881 | 24332 ft | 408 kts | 140° |
| 2026-05-06 23:59 | 34.79501 | -119.36880 | 23935 ft | 393 kts | 140° |
| 2026-05-06 23:59 | 34.77332 | -119.34943 | 23526 ft | 380 kts | 140° |
| 2026-05-07 00:00 | 34.75236 | -119.33073 | 23098 ft | 368 kts | 139° |
| 2026-05-07 00:00 | 34.73199 | -119.31270 | 22707 ft | 358 kts | 140° |
| 2026-05-07 00:00 | 34.71200 | -119.29525 | 22329 ft | 350 kts | 140° |
| 2026-05-07 00:00 | 34.69220 | -119.27795 | 21984 ft | 353 kts | 140° |
| 2026-05-07 00:01 | 34.67203 | -119.26032 | 21639 ft | 361 kts | 140° |
| 2026-05-07 00:01 | 34.65156 | -119.24245 | 21260 ft | 363 kts | 140° |
| 2026-05-07 00:01 | 34.63100 | -119.22465 | 20855 ft | 363 kts | 140° |
| 2026-05-07 00:01 | 34.61048 | -119.20698 | 20488 ft | 360 kts | 140° |
| 2026-05-07 00:02 | 34.59015 | -119.18950 | 20135 ft | 356 kts | 140° |
| 2026-05-07 00:02 | 34.57010 | -119.17226 | 19773 ft | 352 kts | 140° |
| 2026-05-07 00:02 | 34.55054 | -119.15524 | 19435 ft | 349 kts | 140° |
| 2026-05-07 00:02 | 34.53097 | -119.13791 | 19036 ft | 347 kts | 139° |
| 2026-05-07 00:03 | 34.51161 | -119.12067 | 18702 ft | 343 kts | 140° |
| 2026-05-07 00:03 | 34.49246 | -119.10365 | 18350 ft | 340 kts | 139° |
| 2026-05-07 00:03 | 34.47339 | -119.08676 | 17934 ft | 339 kts | 140° |
| 2026-05-07 00:03 | 34.45443 | -119.07001 | 17540 ft | 335 kts | 140° |
| 2026-05-07 00:04 | 34.43567 | -119.05348 | 17183 ft | 333 kts | 140° |
| 2026-05-07 00:04 | 34.41678 | -119.03706 | 16808 ft | 334 kts | 141° |
| 2026-05-07 00:04 | 34.39793 | -119.02076 | 16466 ft | 333 kts | 140° |
| 2026-05-07 00:04 | 34.37912 | -119.00449 | 16097 ft | 332 kts | 140° |
| 2026-05-07 00:05 | 34.36041 | -118.98833 | 15743 ft | 329 kts | 140° |
| 2026-05-07 00:05 | 34.34189 | -118.97231 | 15405 ft | 325 kts | 140° |
| 2026-05-07 00:05 | 34.32378 | -118.95609 | 15079 ft | 322 kts | 139° |
| 2026-05-07 00:05 | 34.30600 | -118.93984 | 14757 ft | 319 kts | 139° |
| 2026-05-07 00:06 | 34.28836 | -118.92374 | 14423 ft | 318 kts | 139° |
| 2026-05-07 00:06 | 34.27069 | -118.90769 | 14093 ft | 316 kts | 139° |
| 2026-05-07 00:06 | 34.25318 | -118.89179 | 13718 ft | 314 kts | 139° |
| 2026-05-07 00:06 | 34.23579 | -118.87585 | 13345 ft | 312 kts | 138° |
| 2026-05-07 00:07 | 34.21881 | -118.86022 | 12997 ft | 310 kts | 138° |
| 2026-05-07 00:07 | 34.20175 | -118.84453 | 12656 ft | 307 kts | 138° |
| 2026-05-07 00:07 | 34.18480 | -118.82896 | 12326 ft | 304 kts | 138° |
| 2026-05-07 00:07 | 34.16803 | -118.81358 | 12000 ft | 302 kts | 138° |
| 2026-05-07 00:08 | 34.15196 | -118.79748 | 11705 ft | 299 kts | 134° |
| 2026-05-07 00:08 | 34.13656 | -118.78061 | 11411 ft | 300 kts | 133° |
| 2026-05-07 00:08 | 34.12112 | -118.76349 | 11109 ft | 302 kts | 133° |
| 2026-05-07 00:08 | 34.10566 | -118.74641 | 10810 ft | 300 kts | 133° |
| 2026-05-07 00:09 | 34.09021 | -118.72950 | 10505 ft | 298 kts | 133° |
| 2026-05-07 00:09 | 34.07511 | -118.71305 | 10242 ft | 295 kts | 134° |
| 2026-05-07 00:09 | 34.05986 | -118.69649 | 9958 ft | 294 kts | 134° |
| 2026-05-07 00:09 | 34.04490 | -118.68027 | 9679 ft | 289 kts | 134° |
| 2026-05-07 00:10 | 34.03212 | -118.66215 | 9345 ft | 280 kts | 112° |
| 2026-05-07 00:10 | 34.02685 | -118.64016 | 9067 ft | 270 kts | 94° |
| 2026-05-07 00:10 | 34.02484 | -118.61781 | 8786 ft | 267 kts | 92° |
| 2026-05-07 00:10 | 34.02297 | -118.59568 | 8506 ft | 264 kts | 93° |
| 2026-05-07 00:11 | 34.02102 | -118.57364 | 8236 ft | 263 kts | 93° |
| 2026-05-07 00:11 | 34.01903 | -118.55180 | 7984 ft | 261 kts | 93° |
| 2026-05-07 00:11 | 34.01704 | -118.53022 | 7760 ft | 257 kts | 94° |
| 2026-05-07 00:11 | 34.01505 | -118.50891 | 7569 ft | 255 kts | 94° |
| 2026-05-07 00:12 | 34.01304 | -118.48760 | 7352 ft | 256 kts | 94° |
| 2026-05-07 00:12 | 34.01102 | -118.46625 | 7120 ft | 256 kts | 93° |
| 2026-05-07 00:12 | 34.01144 | -118.44516 | 6886 ft | 250 kts | 76° |
| 2026-05-07 00:12 | 34.01532 | -118.42497 | 6699 ft | 245 kts | 75° |
| 2026-05-07 00:13 | 34.01902 | -118.40478 | 6331 ft | 250 kts | 75° |
| 2026-05-07 00:13 | 34.02270 | -118.38399 | 5927 ft | 257 kts | 76° |
| 2026-05-07 00:13 | 34.02641 | -118.36269 | 5516 ft | 262 kts | 76° |
| 2026-05-07 00:13 | 34.02944 | -118.34076 | 5100 ft | 268 kts | 81° |
| 2026-05-07 00:14 | 34.03165 | -118.31834 | 4685 ft | 271 kts | 82° |
| 2026-05-07 00:14 | 34.03379 | -118.29564 | 4268 ft | 274 kts | 83° |
| 2026-05-07 00:14 | 34.03624 | -118.27299 | 3838 ft | 270 kts | 81° |
| 2026-05-07 00:14 | 34.03883 | -118.25082 | 3435 ft | 263 kts | 82° |
| 2026-05-07 00:15 | 34.04122 | -118.22945 | 3042 ft | 250 kts | 82° |
| 2026-05-07 00:15 | 34.04115 | -118.20900 | 2668 ft | 242 kts | 105° |
| 2026-05-07 00:15 | 34.03254 | -118.19179 | 2637 ft | 247 kts | 139° |
| 2026-05-07 00:15 | 34.01781 | -118.18207 | 2600 ft | 247 kts | 166° |
| 2026-05-07 00:16 | 34.00100 | -118.17773 | 2596 ft | 248 kts | 171° |
| 2026-05-07 00:16 | 33.98391 | -118.17486 | 2585 ft | 246 kts | 182° |
| 2026-05-07 00:16 | 33.96784 | -118.18051 | 2593 ft | 238 kts | 214° |
| 2026-05-07 00:16 | 33.95651 | -118.19344 | 2592 ft | 212 kts | 234° |
| 2026-05-07 00:17 | 33.95095 | -118.20870 | 2565 ft | 195 kts | 261° |
| 2026-05-07 00:17 | 33.95012 | -118.22448 | 2445 ft | 182 kts | 268° |
| 2026-05-07 00:17 | 33.94998 | -118.23919 | 2235 ft | 171 kts | 269° |
| 2026-05-07 00:17 | 33.94984 | -118.25313 | 2046 ft | 161 kts | 268° |
| 2026-05-07 00:18 | 33.94900 | -118.26618 | 1911 ft | 152 kts | 264° |
| 2026-05-07 00:18 | 33.94796 | -118.27855 | 1713 ft | 146 kts | 262° |
| 2026-05-07 00:18 | 33.94686 | -118.29044 | 1568 ft | 141 kts | 261° |
| 2026-05-07 00:18 | 33.94577 | -118.30165 | 1645 ft | 130 kts | 262° |
| 2026-05-07 00:19 | 33.94465 | -118.31268 | 1520 ft | 135 kts | 262° |
| 2026-05-07 00:19 | 33.94342 | -118.32412 | 1374 ft | 140 kts | 263° |
| 2026-05-07 00:19 | 33.94214 | -118.33563 | 1160 ft | 138 kts | 262° |
| 2026-05-07 00:19 | 33.94106 | -118.34690 | 938 ft | 132 kts | 262° |
| 2026-05-07 00:20 | 33.93992 | -118.35764 | 674 ft | 127 kts | 263° |
| 2026-05-07 00:20 | 33.93878 | -118.36822 | 416 ft | 128 kts | 264° |
| 2026-05-07 00:20 | 33.93813 | -118.37528 | 266 ft | 128 kts | 262° |
| 2026-05-07 00:20 | 33.93708 | -118.38565 | 110 ft | 120 kts | 262° |
| 2026-05-07 00:21 | 33.93612 | -118.39478 | 95 ft | 94 kts | 263° |
| 2026-05-07 00:21 | 33.93535 | -118.40236 | 94 ft | 55 kts | 264° |
| 2026-05-07 00:21 | 33.93549 | -118.40489 | 95 ft | 35 kts | 285° |
| 2026-05-07 00:21 | 33.93596 | -118.40665 | 93 ft | 11 kts | 276° |
| 2026-05-07 00:22 | 33.93593 | -118.40776 | 93 ft | 18 kts | 271° |
| 2026-05-07 00:22 | 33.93664 | -118.40896 | 95 ft | 19 kts | 351° |
| 2026-05-07 00:22 | 33.93747 | -118.40908 | 94 ft | 4 kts | 353° |
| 2026-05-07 00:22 | 33.93781 | -118.40912 | 95 ft | 6 kts | 352° |
| 2026-05-07 00:23 | 33.93830 | -118.40920 | 92 ft | 8 kts | 355° |
| 2026-05-07 00:23 | 33.93871 | -118.40883 | 92 ft | 8 kts | 72° |
| 2026-05-07 00:23 | 33.93879 | -118.40813 | 92 ft | 9 kts | 83° |
| 2026-05-07 00:23 | 33.93888 | -118.40723 | 93 ft | 12 kts | 83° |
| 2026-05-07 00:24 | 33.93897 | -118.40629 | 96 ft | 11 kts | 83° |
| 2026-05-07 00:24 | 33.93909 | -118.40524 | 93 ft | 14 kts | 83° |
| 2026-05-07 00:24 | 33.93922 | -118.40396 | 93 ft | 17 kts | 83° |
| 2026-05-07 00:24 | 33.93936 | -118.40257 | 94 ft | 17 kts | 83° |
| 2026-05-07 00:25 | 33.93949 | -118.40129 | 93 ft | 12 kts | 83° |
| 2026-05-07 00:25 | 33.93995 | -118.40062 | 93 ft | 11 kts | 3° |
| 2026-05-07 00:25 | 33.94034 | -118.40067 | 94 ft | 2 kts | 350° |
| 2026-05-07 00:25 | 33.94046 | -118.40073 | 95 ft | 2 kts | 329° |
| 2026-05-07 00:26 | 33.94055 | -118.40104 | 92 ft | 5 kts | 273° |
| 2026-05-07 00:26 | 33.94054 | -118.40129 | 95 ft | 1 kts | 264° |
| 2026-05-07 00:26 | 33.94053 | -118.40135 | 96 ft | 1 kts | 264° |
| 2026-05-07 00:26 | 33.94053 | -118.40136 | 96 ft | 0 kts | 264° |